sensor_id;sensor_type;location;lat;lon;timestamp;P1;durP1;ratioP1;P2;durP2;ratioP2
6850;SDS011;3464;42.728;23.296;2023-02-01T00:01:23;17.23;;;6.83;;
6850;SDS011;3464;42.728;23.296;2023-02-01T00:03:49;15.30;;;6.93;;
6850;SDS011;3464;42.728;23.296;2023-02-01T00:06:16;16.77;;;7.57;;
6850;SDS011;3464;42.728;23.296;2023-02-01T00:08:42;16.20;;;8.20;;
6850;SDS011;3464;42.728;23.296;2023-02-01T00:11:10;17.07;;;7.40;;
6850;SDS011;3464;42.728;23.296;2023-02-01T00:13:36;15.77;;;7.00;;
6850;SDS011;3464;42.728;23.296;2023-02-01T00:16:03;16.13;;;6.80;;
6850;SDS011;3464;42.728;23.296;2023-02-01T00:18:32;14.83;;;6.90;;
6850;SDS011;3464;42.728;23.296;2023-02-01T00:20:58;13.23;;;6.43;;
6850;SDS011;3464;42.728;23.296;2023-02-01T00:23:25;13.97;;;7.33;;
6850;SDS011;3464;42.728;23.296;2023-02-01T00:25:51;13.40;;;6.27;;
6850;SDS011;3464;42.728;23.296;2023-02-01T00:28:18;14.33;;;6.60;;
6850;SDS011;3464;42.728;23.296;2023-02-01T00:30:44;17.47;;;7.03;;
6850;SDS011;3464;42.728;23.296;2023-02-01T00:33:11;13.73;;;6.73;;
6850;SDS011;3464;42.728;23.296;2023-02-01T00:35:37;13.73;;;7.07;;
6850;SDS011;3464;42.728;23.296;2023-02-01T00:38:04;14.13;;;6.90;;
6850;SDS011;3464;42.728;23.296;2023-02-01T00:40:30;15.90;;;6.37;;
6850;SDS011;3464;42.728;23.296;2023-02-01T00:42:57;14.40;;;6.50;;
6850;SDS011;3464;42.728;23.296;2023-02-01T00:45:24;11.17;;;5.30;;
6850;SDS011;3464;42.728;23.296;2023-02-01T00:47:50;14.17;;;6.10;;
6850;SDS011;3464;42.728;23.296;2023-02-01T00:50:17;12.00;;;5.40;;
6850;SDS011;3464;42.728;23.296;2023-02-01T00:52:43;13.33;;;5.40;;
6850;SDS011;3464;42.728;23.296;2023-02-01T00:55:10;11.77;;;5.40;;
6850;SDS011;3464;42.728;23.296;2023-02-01T00:57:37;12.93;;;5.10;;
6850;SDS011;3464;42.728;23.296;2023-02-01T01:00:04;12.33;;;5.37;;
6850;SDS011;3464;42.728;23.296;2023-02-01T01:02:31;13.47;;;5.17;;
6850;SDS011;3464;42.728;23.296;2023-02-01T01:04:58;13.17;;;6.00;;
6850;SDS011;3464;42.728;23.296;2023-02-01T01:07:24;13.40;;;5.90;;
6850;SDS011;3464;42.728;23.296;2023-02-01T01:09:51;14.80;;;6.00;;
6850;SDS011;3464;42.728;23.296;2023-02-01T01:12:17;12.40;;;5.57;;
6850;SDS011;3464;42.728;23.296;2023-02-01T01:14:44;13.60;;;5.83;;
6850;SDS011;3464;42.728;23.296;2023-02-01T01:17:10;14.27;;;5.67;;
6850;SDS011;3464;42.728;23.296;2023-02-01T01:19:37;12.50;;;5.60;;
6850;SDS011;3464;42.728;23.296;2023-02-01T01:22:04;15.07;;;5.60;;
6850;SDS011;3464;42.728;23.296;2023-02-01T01:24:31;16.73;;;6.40;;
6850;SDS011;3464;42.728;23.296;2023-02-01T01:26:57;14.00;;;5.60;;
6850;SDS011;3464;42.728;23.296;2023-02-01T01:29:24;11.80;;;5.00;;
6850;SDS011;3464;42.728;23.296;2023-02-01T01:31:50;13.67;;;4.90;;
6850;SDS011;3464;42.728;23.296;2023-02-01T01:34:17;12.20;;;5.57;;
6850;SDS011;3464;42.728;23.296;2023-02-01T01:36:43;13.90;;;5.07;;
6850;SDS011;3464;42.728;23.296;2023-02-01T01:39:10;11.30;;;4.97;;
6850;SDS011;3464;42.728;23.296;2023-02-01T01:41:36;10.77;;;4.93;;
6850;SDS011;3464;42.728;23.296;2023-02-01T01:44:04;13.13;;;5.27;;
6850;SDS011;3464;42.728;23.296;2023-02-01T01:46:32;11.07;;;4.40;;
6850;SDS011;3464;42.728;23.296;2023-02-01T01:51:47;11.93;;;5.03;;
6850;SDS011;3464;42.728;23.296;2023-02-01T01:54:18;14.53;;;5.27;;
6850;SDS011;3464;42.728;23.296;2023-02-01T01:56:44;13.37;;;4.67;;
6850;SDS011;3464;42.728;23.296;2023-02-01T01:59:11;13.90;;;5.13;;
6850;SDS011;3464;42.728;23.296;2023-02-01T02:01:37;11.53;;;5.20;;
6850;SDS011;3464;42.728;23.296;2023-02-01T02:04:04;14.60;;;5.77;;
6850;SDS011;3464;42.728;23.296;2023-02-01T02:06:34;13.57;;;5.87;;
6850;SDS011;3464;42.728;23.296;2023-02-01T02:09:03;14.10;;;5.87;;
6850;SDS011;3464;42.728;23.296;2023-02-01T02:11:28;13.90;;;6.10;;
6850;SDS011;3464;42.728;23.296;2023-02-01T02:13:54;13.10;;;5.80;;
6850;SDS011;3464;42.728;23.296;2023-02-01T02:17:29;12.80;;;5.87;;
6850;SDS011;3464;42.728;23.296;2023-02-01T02:21:43;12.50;;;5.80;;
6850;SDS011;3464;42.728;23.296;2023-02-01T02:27:03;16.10;;;5.60;;
6850;SDS011;3464;42.728;23.296;2023-02-01T02:29:36;14.83;;;5.63;;
6850;SDS011;3464;42.728;23.296;2023-02-01T02:32:22;15.17;;;6.10;;
6850;SDS011;3464;42.728;23.296;2023-02-01T02:34:55;13.27;;;5.23;;
6850;SDS011;3464;42.728;23.296;2023-02-01T02:37:24;14.03;;;5.40;;
6850;SDS011;3464;42.728;23.296;2023-02-01T02:40:07;12.43;;;5.03;;
6850;SDS011;3464;42.728;23.296;2023-02-01T02:42:38;15.00;;;4.97;;
6850;SDS011;3464;42.728;23.296;2023-02-01T02:45:13;12.23;;;4.90;;
6850;SDS011;3464;42.728;23.296;2023-02-01T02:48:00;13.90;;;5.13;;
6850;SDS011;3464;42.728;23.296;2023-02-01T02:50:36;12.20;;;4.73;;
6850;SDS011;3464;42.728;23.296;2023-02-01T02:53:12;13.13;;;4.77;;
6850;SDS011;3464;42.728;23.296;2023-02-01T02:55:45;10.43;;;4.00;;
6850;SDS011;3464;42.728;23.296;2023-02-01T02:58:12;14.53;;;4.80;;
6850;SDS011;3464;42.728;23.296;2023-02-01T03:00:44;11.73;;;4.40;;
6850;SDS011;3464;42.728;23.296;2023-02-01T03:03:16;12.07;;;4.00;;
6850;SDS011;3464;42.728;23.296;2023-02-01T03:05:49;14.90;;;4.47;;
6850;SDS011;3464;42.728;23.296;2023-02-01T03:08:18;10.10;;;4.20;;
6850;SDS011;3464;42.728;23.296;2023-02-01T03:10:47;11.67;;;3.80;;
6850;SDS011;3464;42.728;23.296;2023-02-01T03:13:19;10.53;;;3.53;;
6850;SDS011;3464;42.728;23.296;2023-02-01T03:18:26;9.90;;;3.80;;
6850;SDS011;3464;42.728;23.296;2023-02-01T03:20:53;9.70;;;3.33;;
6850;SDS011;3464;42.728;23.296;2023-02-01T03:23:20;10.07;;;3.63;;
6850;SDS011;3464;42.728;23.296;2023-02-01T03:25:47;10.70;;;3.80;;
6850;SDS011;3464;42.728;23.296;2023-02-01T03:28:13;9.50;;;3.40;;
6850;SDS011;3464;42.728;23.296;2023-02-01T03:30:40;10.40;;;3.80;;
6850;SDS011;3464;42.728;23.296;2023-02-01T03:33:09;12.00;;;3.87;;
6850;SDS011;3464;42.728;23.296;2023-02-01T03:35:37;9.43;;;3.37;;
6850;SDS011;3464;42.728;23.296;2023-02-01T03:38:58;9.50;;;3.40;;
6850;SDS011;3464;42.728;23.296;2023-02-01T03:41:14;10.73;;;3.50;;
6850;SDS011;3464;42.728;23.296;2023-02-01T03:43:52;10.07;;;3.67;;
6850;SDS011;3464;42.728;23.296;2023-02-01T03:46:23;11.57;;;3.87;;
6850;SDS011;3464;42.728;23.296;2023-02-01T03:48:48;9.50;;;3.37;;
6850;SDS011;3464;42.728;23.296;2023-02-01T03:51:14;12.13;;;3.97;;
6850;SDS011;3464;42.728;23.296;2023-02-01T03:53:41;10.67;;;4.03;;
6850;SDS011;3464;42.728;23.296;2023-02-01T03:56:07;11.87;;;4.20;;
6850;SDS011;3464;42.728;23.296;2023-02-01T03:58:34;13.70;;;4.80;;
6850;SDS011;3464;42.728;23.296;2023-02-01T04:01:00;13.33;;;5.07;;
6850;SDS011;3464;42.728;23.296;2023-02-01T04:03:27;14.00;;;5.33;;
6850;SDS011;3464;42.728;23.296;2023-02-01T04:05:55;13.23;;;5.17;;
6850;SDS011;3464;42.728;23.296;2023-02-01T04:08:22;11.33;;;4.00;;
6850;SDS011;3464;42.728;23.296;2023-02-01T04:10:48;10.67;;;4.07;;
6850;SDS011;3464;42.728;23.296;2023-02-01T04:13:15;11.57;;;4.03;;
6850;SDS011;3464;42.728;23.296;2023-02-01T04:15:41;16.23;;;4.50;;
6850;SDS011;3464;42.728;23.296;2023-02-01T04:18:08;11.63;;;4.10;;
6850;SDS011;3464;42.728;23.296;2023-02-01T04:20:34;12.77;;;4.77;;
6850;SDS011;3464;42.728;23.296;2023-02-01T04:23:01;12.10;;;4.80;;
6850;SDS011;3464;42.728;23.296;2023-02-01T04:25:29;12.30;;;4.90;;
6850;SDS011;3464;42.728;23.296;2023-02-01T04:27:55;11.60;;;4.50;;
6850;SDS011;3464;42.728;23.296;2023-02-01T04:30:22;15.30;;;4.90;;
6850;SDS011;3464;42.728;23.296;2023-02-01T04:32:49;13.40;;;4.47;;
6850;SDS011;3464;42.728;23.296;2023-02-01T04:35:15;12.73;;;4.27;;
6850;SDS011;3464;42.728;23.296;2023-02-01T04:37:42;11.43;;;3.93;;
6850;SDS011;3464;42.728;23.296;2023-02-01T04:40:09;11.90;;;4.50;;
6850;SDS011;3464;42.728;23.296;2023-02-01T04:42:36;13.20;;;5.03;;
6850;SDS011;3464;42.728;23.296;2023-02-01T04:45:02;13.10;;;4.87;;
6850;SDS011;3464;42.728;23.296;2023-02-01T04:47:29;15.27;;;5.20;;
6850;SDS011;3464;42.728;23.296;2023-02-01T04:49:56;12.87;;;4.70;;
6850;SDS011;3464;42.728;23.296;2023-02-01T04:52:23;15.30;;;5.37;;
6850;SDS011;3464;42.728;23.296;2023-02-01T04:54:50;14.27;;;5.00;;
6850;SDS011;3464;42.728;23.296;2023-02-01T04:57:16;12.37;;;5.37;;
6850;SDS011;3464;42.728;23.296;2023-02-01T04:59:43;12.80;;;5.50;;
6850;SDS011;3464;42.728;23.296;2023-02-01T05:02:09;12.80;;;4.93;;
6850;SDS011;3464;42.728;23.296;2023-02-01T05:04:37;15.33;;;5.50;;
6850;SDS011;3464;42.728;23.296;2023-02-01T05:07:03;12.67;;;5.17;;
6850;SDS011;3464;42.728;23.296;2023-02-01T05:09:30;12.33;;;4.83;;
6850;SDS011;3464;42.728;23.296;2023-02-01T05:11:56;13.50;;;5.60;;
6850;SDS011;3464;42.728;23.296;2023-02-01T05:14:28;14.03;;;5.83;;
6850;SDS011;3464;42.728;23.296;2023-02-01T05:16:55;12.37;;;5.30;;
6850;SDS011;3464;42.728;23.296;2023-02-01T05:19:22;12.90;;;5.40;;
6850;SDS011;3464;42.728;23.296;2023-02-01T05:21:48;14.63;;;5.50;;
6850;SDS011;3464;42.728;23.296;2023-02-01T05:24:15;16.43;;;6.57;;
6850;SDS011;3464;42.728;23.296;2023-02-01T05:26:42;13.90;;;5.73;;
6850;SDS011;3464;42.728;23.296;2023-02-01T05:29:09;12.90;;;4.90;;
6850;SDS011;3464;42.728;23.296;2023-02-01T05:31:35;17.83;;;5.60;;
6850;SDS011;3464;42.728;23.296;2023-02-01T05:34:02;19.00;;;5.77;;
6850;SDS011;3464;42.728;23.296;2023-02-01T05:36:29;14.70;;;5.10;;
6850;SDS011;3464;42.728;23.296;2023-02-01T05:38:55;15.33;;;5.97;;
6850;SDS011;3464;42.728;23.296;2023-02-01T05:41:22;13.07;;;5.50;;
6850;SDS011;3464;42.728;23.296;2023-02-01T05:43:49;13.60;;;5.70;;
6850;SDS011;3464;42.728;23.296;2023-02-01T05:46:15;12.60;;;5.67;;
6850;SDS011;3464;42.728;23.296;2023-02-01T05:48:43;13.87;;;6.30;;
6850;SDS011;3464;42.728;23.296;2023-02-01T05:51:09;17.93;;;6.83;;
6850;SDS011;3464;42.728;23.296;2023-02-01T05:53:36;15.57;;;6.97;;
6850;SDS011;3464;42.728;23.296;2023-02-01T05:56:03;17.83;;;7.40;;
6850;SDS011;3464;42.728;23.296;2023-02-01T05:58:30;19.10;;;7.73;;
6850;SDS011;3464;42.728;23.296;2023-02-01T06:00:58;15.80;;;6.50;;
6850;SDS011;3464;42.728;23.296;2023-02-01T06:03:24;14.53;;;6.30;;
6850;SDS011;3464;42.728;23.296;2023-02-01T06:05:50;14.40;;;5.97;;
6850;SDS011;3464;42.728;23.296;2023-02-01T06:08:17;14.20;;;6.03;;
6850;SDS011;3464;42.728;23.296;2023-02-01T06:10:43;17.93;;;5.70;;
6850;SDS011;3464;42.728;23.296;2023-02-01T06:13:10;15.20;;;6.33;;
6850;SDS011;3464;42.728;23.296;2023-02-01T06:15:37;16.57;;;7.03;;
6850;SDS011;3464;42.728;23.296;2023-02-01T06:18:03;17.23;;;7.20;;
6850;SDS011;3464;42.728;23.296;2023-02-01T06:20:30;17.57;;;6.67;;
6850;SDS011;3464;42.728;23.296;2023-02-01T06:22:57;22.07;;;8.57;;
6850;SDS011;3464;42.728;23.296;2023-02-01T06:25:23;16.80;;;8.63;;
6850;SDS011;3464;42.728;23.296;2023-02-01T06:27:50;17.87;;;7.03;;
6850;SDS011;3464;42.728;23.296;2023-02-01T06:30:17;19.77;;;7.40;;
6850;SDS011;3464;42.728;23.296;2023-02-01T06:32:44;17.97;;;7.13;;
6850;SDS011;3464;42.728;23.296;2023-02-01T06:35:10;15.83;;;7.07;;
6850;SDS011;3464;42.728;23.296;2023-02-01T06:37:37;16.70;;;6.63;;
6850;SDS011;3464;42.728;23.296;2023-02-01T06:40:04;16.03;;;5.03;;
6850;SDS011;3464;42.728;23.296;2023-02-01T06:42:32;14.43;;;5.60;;
6850;SDS011;3464;42.728;23.296;2023-02-01T06:45:03;15.70;;;5.23;;
6850;SDS011;3464;42.728;23.296;2023-02-01T06:47:30;13.37;;;4.80;;
6850;SDS011;3464;42.728;23.296;2023-02-01T06:49:57;16.50;;;5.73;;
6850;SDS011;3464;42.728;23.296;2023-02-01T06:52:23;20.10;;;5.60;;
6850;SDS011;3464;42.728;23.296;2023-02-01T06:54:55;15.93;;;5.97;;
6850;SDS011;3464;42.728;23.296;2023-02-01T06:57:21;15.87;;;6.43;;
6850;SDS011;3464;42.728;23.296;2023-02-01T06:59:48;18.80;;;6.13;;
6850;SDS011;3464;42.728;23.296;2023-02-01T07:02:15;15.23;;;5.50;;
6850;SDS011;3464;42.728;23.296;2023-02-01T07:04:42;16.13;;;6.50;;
6850;SDS011;3464;42.728;23.296;2023-02-01T07:07:08;16.70;;;6.30;;
6850;SDS011;3464;42.728;23.296;2023-02-01T07:09:36;15.73;;;6.03;;
6850;SDS011;3464;42.728;23.296;2023-02-01T07:12:03;20.50;;;7.60;;
6850;SDS011;3464;42.728;23.296;2023-02-01T07:14:30;16.07;;;6.63;;
6850;SDS011;3464;42.728;23.296;2023-02-01T07:16:56;19.47;;;7.00;;
6850;SDS011;3464;42.728;23.296;2023-02-01T07:19:23;17.30;;;6.30;;
6850;SDS011;3464;42.728;23.296;2023-02-01T07:21:49;20.90;;;7.57;;
6850;SDS011;3464;42.728;23.296;2023-02-01T07:24:16;16.87;;;7.03;;
6850;SDS011;3464;42.728;23.296;2023-02-01T07:26:42;15.47;;;6.30;;
6850;SDS011;3464;42.728;23.296;2023-02-01T07:29:09;15.40;;;5.63;;
6850;SDS011;3464;42.728;23.296;2023-02-01T07:31:35;17.90;;;6.13;;
6850;SDS011;3464;42.728;23.296;2023-02-01T07:34:02;19.23;;;6.93;;
6850;SDS011;3464;42.728;23.296;2023-02-01T07:36:28;22.60;;;6.67;;
6850;SDS011;3464;42.728;23.296;2023-02-01T07:38:55;17.37;;;6.20;;
6850;SDS011;3464;42.728;23.296;2023-02-01T07:41:22;16.57;;;4.70;;
6850;SDS011;3464;42.728;23.296;2023-02-01T07:43:51;13.00;;;4.50;;
6850;SDS011;3464;42.728;23.296;2023-02-01T07:46:21;21.10;;;10.53;;
6850;SDS011;3464;42.728;23.296;2023-02-01T07:48:47;23.00;;;8.70;;
6850;SDS011;3464;42.728;23.296;2023-02-01T07:51:15;17.80;;;6.03;;
6850;SDS011;3464;42.728;23.296;2023-02-01T07:53:42;14.07;;;5.00;;
6850;SDS011;3464;42.728;23.296;2023-02-01T07:56:10;13.90;;;4.40;;
6850;SDS011;3464;42.728;23.296;2023-02-01T07:58:40;12.93;;;3.90;;
6850;SDS011;3464;42.728;23.296;2023-02-01T08:01:14;13.03;;;3.67;;
6850;SDS011;3464;42.728;23.296;2023-02-01T08:03:51;12.97;;;4.10;;
6850;SDS011;3464;42.728;23.296;2023-02-01T08:06:26;12.47;;;4.20;;
6850;SDS011;3464;42.728;23.296;2023-02-01T08:08:52;19.20;;;4.20;;
6850;SDS011;3464;42.728;23.296;2023-02-01T08:11:18;12.90;;;4.20;;
6850;SDS011;3464;42.728;23.296;2023-02-01T08:13:45;15.73;;;4.80;;
6850;SDS011;3464;42.728;23.296;2023-02-01T08:16:12;17.77;;;5.77;;
6850;SDS011;3464;42.728;23.296;2023-02-01T08:18:40;15.50;;;5.10;;
6850;SDS011;3464;42.728;23.296;2023-02-01T08:21:23;17.63;;;5.10;;
6850;SDS011;3464;42.728;23.296;2023-02-01T08:24:06;16.67;;;4.87;;
6850;SDS011;3464;42.728;23.296;2023-02-01T08:26:33;14.13;;;4.90;;
6850;SDS011;3464;42.728;23.296;2023-02-01T08:29:00;13.83;;;4.63;;
6850;SDS011;3464;42.728;23.296;2023-02-01T08:31:27;13.67;;;4.43;;
6850;SDS011;3464;42.728;23.296;2023-02-01T08:33:54;13.43;;;4.80;;
6850;SDS011;3464;42.728;23.296;2023-02-01T08:36:21;22.27;;;4.97;;
6850;SDS011;3464;42.728;23.296;2023-02-01T08:38:47;13.13;;;4.50;;
6850;SDS011;3464;42.728;23.296;2023-02-01T08:41:15;17.03;;;5.30;;
6850;SDS011;3464;42.728;23.296;2023-02-01T08:43:41;16.80;;;4.43;;
6850;SDS011;3464;42.728;23.296;2023-02-01T08:46:09;15.33;;;4.83;;
6850;SDS011;3464;42.728;23.296;2023-02-01T08:48:35;14.40;;;4.40;;
6850;SDS011;3464;42.728;23.296;2023-02-01T08:51:03;16.20;;;4.60;;
6850;SDS011;3464;42.728;23.296;2023-02-01T08:53:30;17.80;;;4.83;;
6850;SDS011;3464;42.728;23.296;2023-02-01T08:55:57;13.53;;;4.40;;
6850;SDS011;3464;42.728;23.296;2023-02-01T08:58:23;11.93;;;3.50;;
6850;SDS011;3464;42.728;23.296;2023-02-01T09:00:51;13.00;;;3.90;;
6850;SDS011;3464;42.728;23.296;2023-02-01T09:03:17;12.27;;;3.67;;
6850;SDS011;3464;42.728;23.296;2023-02-01T09:05:44;13.00;;;3.70;;
6850;SDS011;3464;42.728;23.296;2023-02-01T09:08:11;11.17;;;3.30;;
6850;SDS011;3464;42.728;23.296;2023-02-01T09:10:37;12.47;;;2.80;;
6850;SDS011;3464;42.728;23.296;2023-02-01T09:13:04;14.23;;;3.90;;
6850;SDS011;3464;42.728;23.296;2023-02-01T09:15:33;20.10;;;4.00;;
6850;SDS011;3464;42.728;23.296;2023-02-01T09:17:59;13.07;;;3.83;;
6850;SDS011;3464;42.728;23.296;2023-02-01T09:20:26;11.80;;;2.90;;
6850;SDS011;3464;42.728;23.296;2023-02-01T09:22:54;11.80;;;3.10;;
6850;SDS011;3464;42.728;23.296;2023-02-01T09:25:20;12.43;;;3.00;;
6850;SDS011;3464;42.728;23.296;2023-02-01T09:27:46;13.70;;;3.20;;
6850;SDS011;3464;42.728;23.296;2023-02-01T09:30:13;15.37;;;3.53;;
6850;SDS011;3464;42.728;23.296;2023-02-01T09:32:40;12.07;;;3.33;;
6850;SDS011;3464;42.728;23.296;2023-02-01T09:35:07;13.70;;;3.53;;
6850;SDS011;3464;42.728;23.296;2023-02-01T09:37:34;12.77;;;3.57;;
6850;SDS011;3464;42.728;23.296;2023-02-01T09:40:00;17.60;;;3.50;;
6850;SDS011;3464;42.728;23.296;2023-02-01T09:42:38;11.23;;;3.17;;
6850;SDS011;3464;42.728;23.296;2023-02-01T09:45:10;11.93;;;3.47;;
6850;SDS011;3464;42.728;23.296;2023-02-01T09:47:35;13.50;;;2.97;;
6850;SDS011;3464;42.728;23.296;2023-02-01T09:50:03;10.77;;;2.77;;
6850;SDS011;3464;42.728;23.296;2023-02-01T09:52:31;15.90;;;3.30;;
6850;SDS011;3464;42.728;23.296;2023-02-01T09:54:58;14.53;;;2.73;;
6850;SDS011;3464;42.728;23.296;2023-02-01T09:57:24;10.87;;;2.97;;
6850;SDS011;3464;42.728;23.296;2023-02-01T09:59:56;14.07;;;3.10;;
6850;SDS011;3464;42.728;23.296;2023-02-01T10:02:30;10.80;;;2.63;;
6850;SDS011;3464;42.728;23.296;2023-02-01T10:04:58;12.20;;;3.33;;
6850;SDS011;3464;42.728;23.296;2023-02-01T10:07:33;10.70;;;2.63;;
6850;SDS011;3464;42.728;23.296;2023-02-01T10:13:45;11.90;;;3.47;;
6850;SDS011;3464;42.728;23.296;2023-02-01T10:15:40;13.37;;;3.30;;
6850;SDS011;3464;42.728;23.296;2023-02-01T10:18:10;12.10;;;3.23;;
6850;SDS011;3464;42.728;23.296;2023-02-01T10:20:49;13.90;;;3.73;;
6850;SDS011;3464;42.728;23.296;2023-02-01T10:23:25;11.10;;;2.83;;
6850;SDS011;3464;42.728;23.296;2023-02-01T10:25:54;12.87;;;3.00;;
6850;SDS011;3464;42.728;23.296;2023-02-01T10:28:20;14.00;;;3.40;;
6850;SDS011;3464;42.728;23.296;2023-02-01T10:30:47;14.10;;;3.83;;
6850;SDS011;3464;42.728;23.296;2023-02-01T10:33:18;12.47;;;4.40;;
6850;SDS011;3464;42.728;23.296;2023-02-01T10:35:45;12.43;;;3.90;;
6850;SDS011;3464;42.728;23.296;2023-02-01T10:38:15;13.23;;;3.33;;
6850;SDS011;3464;42.728;23.296;2023-02-01T10:40:41;13.70;;;3.50;;
6850;SDS011;3464;42.728;23.296;2023-02-01T10:43:08;11.53;;;3.70;;
6850;SDS011;3464;42.728;23.296;2023-02-01T10:45:34;12.03;;;3.17;;
6850;SDS011;3464;42.728;23.296;2023-02-01T10:48:02;12.37;;;3.57;;
6850;SDS011;3464;42.728;23.296;2023-02-01T10:50:38;15.57;;;3.83;;
6850;SDS011;3464;42.728;23.296;2023-02-01T10:53:12;11.27;;;3.70;;
6850;SDS011;3464;42.728;23.296;2023-02-01T10:55:48;15.20;;;4.67;;
6850;SDS011;3464;42.728;23.296;2023-02-01T10:58:17;13.73;;;4.80;;
6850;SDS011;3464;42.728;23.296;2023-02-01T11:00:45;13.50;;;3.40;;
6850;SDS011;3464;42.728;23.296;2023-02-01T11:03:19;12.27;;;3.17;;
6850;SDS011;3464;42.728;23.296;2023-02-01T11:05:48;14.20;;;3.30;;
6850;SDS011;3464;42.728;23.296;2023-02-01T11:08:15;12.97;;;2.93;;
6850;SDS011;3464;42.728;23.296;2023-02-01T11:10:42;11.07;;;2.43;;
6850;SDS011;3464;42.728;23.296;2023-02-01T11:13:13;9.90;;;2.63;;
6850;SDS011;3464;42.728;23.296;2023-02-01T11:15:39;10.63;;;2.63;;
6850;SDS011;3464;42.728;23.296;2023-02-01T11:18:14;10.67;;;2.40;;
6850;SDS011;3464;42.728;23.296;2023-02-01T11:20:43;10.20;;;2.43;;
6850;SDS011;3464;42.728;23.296;2023-02-01T11:23:18;11.67;;;2.50;;
6850;SDS011;3464;42.728;23.296;2023-02-01T11:28:29;12.20;;;2.90;;
6850;SDS011;3464;42.728;23.296;2023-02-01T11:30:53;9.83;;;2.40;;
6850;SDS011;3464;42.728;23.296;2023-02-01T11:33:20;12.47;;;2.37;;
6850;SDS011;3464;42.728;23.296;2023-02-01T11:35:47;16.10;;;2.90;;
6850;SDS011;3464;42.728;23.296;2023-02-01T11:38:21;10.53;;;2.60;;
6850;SDS011;3464;42.728;23.296;2023-02-01T11:40:48;10.00;;;3.00;;
6850;SDS011;3464;42.728;23.296;2023-02-01T11:43:18;10.20;;;2.80;;
6850;SDS011;3464;42.728;23.296;2023-02-01T11:46:08;14.20;;;4.13;;
6850;SDS011;3464;42.728;23.296;2023-02-01T11:48:33;9.60;;;2.50;;
6850;SDS011;3464;42.728;23.296;2023-02-01T11:51:07;9.10;;;2.37;;
6850;SDS011;3464;42.728;23.296;2023-02-01T11:56:47;10.30;;;2.13;;
6850;SDS011;3464;42.728;23.296;2023-02-01T11:59:24;8.83;;;1.93;;
6850;SDS011;3464;42.728;23.296;2023-02-01T12:02:00;11.00;;;2.40;;
6850;SDS011;3464;42.728;23.296;2023-02-01T12:04:52;10.50;;;2.77;;
6850;SDS011;3464;42.728;23.296;2023-02-01T12:07:29;12.97;;;2.80;;
6850;SDS011;3464;42.728;23.296;2023-02-01T12:16:02;11.80;;;2.53;;
6850;SDS011;3464;42.728;23.296;2023-02-01T12:21:38;10.10;;;2.10;;
6850;SDS011;3464;42.728;23.296;2023-02-01T12:24:15;10.57;;;2.53;;
6850;SDS011;3464;42.728;23.296;2023-02-01T12:27:16;10.50;;;2.23;;
6850;SDS011;3464;42.728;23.296;2023-02-01T12:30:18;10.17;;;2.10;;
6850;SDS011;3464;42.728;23.296;2023-02-01T12:32:51;10.13;;;2.40;;
6850;SDS011;3464;42.728;23.296;2023-02-01T12:38:45;10.87;;;2.30;;
6850;SDS011;3464;42.728;23.296;2023-02-01T12:43:59;13.47;;;2.30;;
6850;SDS011;3464;42.728;23.296;2023-02-01T12:46:38;9.10;;;2.20;;
6850;SDS011;3464;42.728;23.296;2023-02-01T12:51:42;8.97;;;2.20;;
6850;SDS011;3464;42.728;23.296;2023-02-01T12:54:12;11.07;;;2.30;;
6850;SDS011;3464;42.728;23.296;2023-02-01T12:56:38;13.70;;;2.40;;
6850;SDS011;3464;42.728;23.296;2023-02-01T12:59:15;11.90;;;2.50;;
6850;SDS011;3464;42.728;23.296;2023-02-01T13:01:46;9.40;;;2.40;;
6850;SDS011;3464;42.728;23.296;2023-02-01T13:07:07;9.87;;;2.37;;
6850;SDS011;3464;42.728;23.296;2023-02-01T13:09:38;8.70;;;2.20;;
6850;SDS011;3464;42.728;23.296;2023-02-01T13:12:12;10.13;;;2.27;;
6850;SDS011;3464;42.728;23.296;2023-02-01T13:14:44;11.13;;;2.37;;
6850;SDS011;3464;42.728;23.296;2023-02-01T13:17:16;8.80;;;2.00;;
6850;SDS011;3464;42.728;23.296;2023-02-01T13:19:55;14.63;;;2.57;;
6850;SDS011;3464;42.728;23.296;2023-02-01T13:25:39;11.53;;;2.60;;
6850;SDS011;3464;42.728;23.296;2023-02-01T13:28:11;10.13;;;2.47;;
6850;SDS011;3464;42.728;23.296;2023-02-01T13:30:48;9.07;;;2.53;;
6850;SDS011;3464;42.728;23.296;2023-02-01T13:33:22;8.17;;;1.90;;
6850;SDS011;3464;42.728;23.296;2023-02-01T13:35:50;10.30;;;2.20;;
6850;SDS011;3464;42.728;23.296;2023-02-01T13:38:51;8.90;;;2.17;;
6850;SDS011;3464;42.728;23.296;2023-02-01T13:41:24;9.73;;;2.53;;
6850;SDS011;3464;42.728;23.296;2023-02-01T13:43:53;12.03;;;2.30;;
6850;SDS011;3464;42.728;23.296;2023-02-01T13:46:19;10.07;;;2.23;;
6850;SDS011;3464;42.728;23.296;2023-02-01T13:48:54;14.23;;;2.43;;
6850;SDS011;3464;42.728;23.296;2023-02-01T14:00:39;10.83;;;2.60;;
6850;SDS011;3464;42.728;23.296;2023-02-01T14:03:08;12.53;;;2.67;;
6850;SDS011;3464;42.728;23.296;2023-02-01T14:08:22;10.27;;;3.10;;
6850;SDS011;3464;42.728;23.296;2023-02-01T14:10:54;10.40;;;2.77;;
6850;SDS011;3464;42.728;23.296;2023-02-01T14:13:25;10.50;;;3.00;;
6850;SDS011;3464;42.728;23.296;2023-02-01T14:16:11;10.97;;;3.20;;
6850;SDS011;3464;42.728;23.296;2023-02-01T14:18:49;11.33;;;3.00;;
6850;SDS011;3464;42.728;23.296;2023-02-01T14:21:18;11.93;;;2.70;;
6850;SDS011;3464;42.728;23.296;2023-02-01T14:23:57;14.60;;;3.60;;
6850;SDS011;3464;42.728;23.296;2023-02-01T14:26:49;11.80;;;3.70;;
6850;SDS011;3464;42.728;23.296;2023-02-01T14:29:31;11.70;;;3.37;;
6850;SDS011;3464;42.728;23.296;2023-02-01T14:32:20;14.57;;;3.63;;
6850;SDS011;3464;42.728;23.296;2023-02-01T14:34:55;13.77;;;3.30;;
6850;SDS011;3464;42.728;23.296;2023-02-01T14:37:27;13.13;;;2.97;;
6850;SDS011;3464;42.728;23.296;2023-02-01T14:39:58;10.93;;;3.00;;
6850;SDS011;3464;42.728;23.296;2023-02-01T14:42:35;13.50;;;3.83;;
6850;SDS011;3464;42.728;23.296;2023-02-01T14:51:05;15.20;;;4.17;;
6850;SDS011;3464;42.728;23.296;2023-02-01T14:56:13;14.87;;;4.60;;
6850;SDS011;3464;42.728;23.296;2023-02-01T14:58:42;11.57;;;3.80;;
6850;SDS011;3464;42.728;23.296;2023-02-01T15:01:17;13.13;;;3.27;;
6850;SDS011;3464;42.728;23.296;2023-02-01T15:03:49;14.07;;;3.67;;
6850;SDS011;3464;42.728;23.296;2023-02-01T15:06:26;15.13;;;4.43;;
6850;SDS011;3464;42.728;23.296;2023-02-01T15:08:54;16.30;;;4.53;;
6850;SDS011;3464;42.728;23.296;2023-02-01T15:11:29;16.63;;;4.50;;
6850;SDS011;3464;42.728;23.296;2023-02-01T15:13:55;13.20;;;4.53;;
6850;SDS011;3464;42.728;23.296;2023-02-01T15:16:23;15.67;;;4.80;;
6850;SDS011;3464;42.728;23.296;2023-02-01T15:19:11;15.70;;;4.50;;
6850;SDS011;3464;42.728;23.296;2023-02-01T15:21:44;14.90;;;4.80;;
6850;SDS011;3464;42.728;23.296;2023-02-01T15:24:10;16.07;;;4.33;;
6850;SDS011;3464;42.728;23.296;2023-02-01T15:32:38;14.13;;;5.17;;
6850;SDS011;3464;42.728;23.296;2023-02-01T15:35:05;23.17;;;7.17;;
6850;SDS011;3464;42.728;23.296;2023-02-01T15:37:34;22.60;;;7.13;;
6850;SDS011;3464;42.728;23.296;2023-02-01T15:40:20;25.70;;;6.27;;
6850;SDS011;3464;42.728;23.296;2023-02-01T15:42:52;18.57;;;7.00;;
6850;SDS011;3464;42.728;23.296;2023-02-01T15:45:19;23.53;;;7.97;;
6850;SDS011;3464;42.728;23.296;2023-02-01T15:47:48;25.77;;;7.93;;
6850;SDS011;3464;42.728;23.296;2023-02-01T15:50:22;24.43;;;9.80;;
6850;SDS011;3464;42.728;23.296;2023-02-01T15:52:51;23.33;;;10.07;;
6850;SDS011;3464;42.728;23.296;2023-02-01T15:55:19;27.27;;;11.43;;
6850;SDS011;3464;42.728;23.296;2023-02-01T15:57:46;27.67;;;11.17;;
6850;SDS011;3464;42.728;23.296;2023-02-01T16:02:53;33.60;;;12.93;;
6850;SDS011;3464;42.728;23.296;2023-02-01T16:14:23;28.03;;;9.47;;
6850;SDS011;3464;42.728;23.296;2023-02-01T16:16:55;23.30;;;10.53;;
6850;SDS011;3464;42.728;23.296;2023-02-01T16:19:20;24.40;;;10.63;;
6850;SDS011;3464;42.728;23.296;2023-02-01T16:21:47;29.30;;;10.73;;
6850;SDS011;3464;42.728;23.296;2023-02-01T16:24:15;29.43;;;9.53;;